sensor_id;sensor_type;location;lat;lon;timestamp;temperature;humidity
76168;DHT22;64927;48.214;16.378;2024-02-21T00:01:18;10.60;58.10
76168;DHT22;64927;48.214;16.378;2024-02-21T00:03:45;10.60;58.20
76168;DHT22;64927;48.214;16.378;2024-02-21T00:06:11;10.60;58.10
76168;DHT22;64927;48.214;16.378;2024-02-21T00:08:36;10.60;58.00
76168;DHT22;64927;48.214;16.378;2024-02-21T00:11:02;10.60;57.50
76168;DHT22;64927;48.214;16.378;2024-02-21T00:13:28;10.60;57.50
76168;DHT22;64927;48.214;16.378;2024-02-21T00:15:53;10.60;58.10
76168;DHT22;64927;48.214;16.378;2024-02-21T00:18:19;10.60;57.80
76168;DHT22;64927;48.214;16.378;2024-02-21T00:20:45;10.60;57.80
76168;DHT22;64927;48.214;16.378;2024-02-21T00:23:10;10.50;57.90
76168;DHT22;64927;48.214;16.378;2024-02-21T00:25:38;10.50;58.10
76168;DHT22;64927;48.214;16.378;2024-02-21T00:28:04;10.60;58.30
76168;DHT22;64927;48.214;16.378;2024-02-21T00:30:31;10.60;58.20
76168;DHT22;64927;48.214;16.378;2024-02-21T00:32:57;10.60;57.80
76168;DHT22;64927;48.214;16.378;2024-02-21T00:35:22;10.60;58.20
76168;DHT22;64927;48.214;16.378;2024-02-21T00:37:48;10.60;57.70
76168;DHT22;64927;48.214;16.378;2024-02-21T00:40:14;10.50;57.80
76168;DHT22;64927;48.214;16.378;2024-02-21T00:42:45;10.50;58.10
76168;DHT22;64927;48.214;16.378;2024-02-21T00:45:11;10.60;57.50
76168;DHT22;64927;48.214;16.378;2024-02-21T00:47:37;10.60;57.40
76168;DHT22;64927;48.214;16.378;2024-02-21T00:50:02;10.50;57.30
76168;DHT22;64927;48.214;16.378;2024-02-21T00:52:32;10.60;57.40
76168;DHT22;64927;48.214;16.378;2024-02-21T00:54:58;10.60;57.00
76168;DHT22;64927;48.214;16.378;2024-02-21T00:57:23;10.60;57.30
76168;DHT22;64927;48.214;16.378;2024-02-21T00:59:49;10.60;56.80
76168;DHT22;64927;48.214;16.378;2024-02-21T01:02:14;10.50;57.60
76168;DHT22;64927;48.214;16.378;2024-02-21T01:04:40;10.60;56.70
76168;DHT22;64927;48.214;16.378;2024-02-21T01:07:06;10.60;56.60
76168;DHT22;64927;48.214;16.378;2024-02-21T01:09:31;10.50;56.90
76168;DHT22;64927;48.214;16.378;2024-02-21T01:11:57;10.60;56.60
76168;DHT22;64927;48.214;16.378;2024-02-21T01:14:23;10.60;56.60
76168;DHT22;64927;48.214;16.378;2024-02-21T01:16:50;10.60;56.60
76168;DHT22;64927;48.214;16.378;2024-02-21T01:19:16;10.60;56.00
76168;DHT22;64927;48.214;16.378;2024-02-21T01:21:41;10.60;56.30
76168;DHT22;64927;48.214;16.378;2024-02-21T01:24:07;10.60;55.90
76168;DHT22;64927;48.214;16.378;2024-02-21T01:26:35;10.60;56.50
76168;DHT22;64927;48.214;16.378;2024-02-21T01:29:01;10.60;56.80
76168;DHT22;64927;48.214;16.378;2024-02-21T01:31:29;10.60;57.50
76168;DHT22;64927;48.214;16.378;2024-02-21T01:33:55;10.60;56.40
76168;DHT22;64927;48.214;16.378;2024-02-21T01:36:23;10.50;56.60
76168;DHT22;64927;48.214;16.378;2024-02-21T01:38:49;10.50;56.80
76168;DHT22;64927;48.214;16.378;2024-02-21T01:41:14;10.50;56.70
76168;DHT22;64927;48.214;16.378;2024-02-21T01:43:41;10.60;56.90
76168;DHT22;64927;48.214;16.378;2024-02-21T01:46:07;10.50;56.50
76168;DHT22;64927;48.214;16.378;2024-02-21T01:48:33;10.60;56.80
76168;DHT22;64927;48.214;16.378;2024-02-21T01:50:59;10.50;56.50
76168;DHT22;64927;48.214;16.378;2024-02-21T01:53:37;10.60;56.60
76168;DHT22;64927;48.214;16.378;2024-02-21T01:56:06;10.50;56.50
76168;DHT22;64927;48.214;16.378;2024-02-21T01:58:33;10.50;56.60
76168;DHT22;64927;48.214;16.378;2024-02-21T02:01:00;10.50;56.10
76168;DHT22;64927;48.214;16.378;2024-02-21T02:03:26;10.60;56.30
76168;DHT22;64927;48.214;16.378;2024-02-21T02:05:52;10.60;56.00
76168;DHT22;64927;48.214;16.378;2024-02-21T02:08:19;10.50;56.10
76168;DHT22;64927;48.214;16.378;2024-02-21T02:10:45;10.50;56.70
76168;DHT22;64927;48.214;16.378;2024-02-21T02:13:13;10.50;56.60
76168;DHT22;64927;48.214;16.378;2024-02-21T02:18:05;10.50;55.90
76168;DHT22;64927;48.214;16.378;2024-02-21T02:20:30;10.50;56.00
76168;DHT22;64927;48.214;16.378;2024-02-21T02:22:59;10.50;56.10
76168;DHT22;64927;48.214;16.378;2024-02-21T02:25:26;10.60;56.00
76168;DHT22;64927;48.214;16.378;2024-02-21T02:27:52;10.50;55.90
76168;DHT22;64927;48.214;16.378;2024-02-21T02:30:18;10.60;56.00
76168;DHT22;64927;48.214;16.378;2024-02-21T02:32:46;10.50;55.70
76168;DHT22;64927;48.214;16.378;2024-02-21T02:35:12;10.50;56.00
76168;DHT22;64927;48.214;16.378;2024-02-21T02:37:38;10.50;56.20
76168;DHT22;64927;48.214;16.378;2024-02-21T02:40:06;10.50;56.00
76168;DHT22;64927;48.214;16.378;2024-02-21T02:42:34;10.50;55.90
76168;DHT22;64927;48.214;16.378;2024-02-21T02:45:02;10.50;56.40
76168;DHT22;64927;48.214;16.378;2024-02-21T02:47:30;10.50;56.00
76168;DHT22;64927;48.214;16.378;2024-02-21T02:49:55;10.50;56.00
76168;DHT22;64927;48.214;16.378;2024-02-21T02:52:21;10.40;56.30
76168;DHT22;64927;48.214;16.378;2024-02-21T02:54:46;10.40;56.30
76168;DHT22;64927;48.214;16.378;2024-02-21T02:57:17;10.40;56.00
76168;DHT22;64927;48.214;16.378;2024-02-21T02:59:50;10.50;56.00
76168;DHT22;64927;48.214;16.378;2024-02-21T03:02:18;10.50;55.90
76168;DHT22;64927;48.214;16.378;2024-02-21T03:04:44;10.40;56.30
76168;DHT22;64927;48.214;16.378;2024-02-21T03:07:10;10.40;56.10
76168;DHT22;64927;48.214;16.378;2024-02-21T03:09:39;10.40;56.00
76168;DHT22;64927;48.214;16.378;2024-02-21T03:12:05;10.40;56.20
76168;DHT22;64927;48.214;16.378;2024-02-21T03:14:34;10.40;55.80
76168;DHT22;64927;48.214;16.378;2024-02-21T03:16:59;10.50;56.00
76168;DHT22;64927;48.214;16.378;2024-02-21T03:19:26;10.50;55.70
76168;DHT22;64927;48.214;16.378;2024-02-21T03:21:52;10.40;56.10
76168;DHT22;64927;48.214;16.378;2024-02-21T03:24:18;10.40;55.90
76168;DHT22;64927;48.214;16.378;2024-02-21T03:26:44;10.50;55.90
76168;DHT22;64927;48.214;16.378;2024-02-21T03:29:13;10.50;55.70
76168;DHT22;64927;48.214;16.378;2024-02-21T03:31:39;10.40;55.80
76168;DHT22;64927;48.214;16.378;2024-02-21T03:34:05;10.40;56.00
76168;DHT22;64927;48.214;16.378;2024-02-21T03:36:31;10.40;55.70
76168;DHT22;64927;48.214;16.378;2024-02-21T03:38:56;10.50;55.70
76168;DHT22;64927;48.214;16.378;2024-02-21T03:41:27;10.50;56.00
76168;DHT22;64927;48.214;16.378;2024-02-21T03:43:52;10.50;56.00
76168;DHT22;64927;48.214;16.378;2024-02-21T03:46:18;10.40;56.20
76168;DHT22;64927;48.214;16.378;2024-02-21T03:48:43;10.40;56.30
76168;DHT22;64927;48.214;16.378;2024-02-21T03:51:11;10.50;56.30
76168;DHT22;64927;48.214;16.378;2024-02-21T03:53:40;10.40;56.50
76168;DHT22;64927;48.214;16.378;2024-02-21T03:56:06;10.40;56.50
76168;DHT22;64927;48.214;16.378;2024-02-21T03:58:33;10.40;56.40
76168;DHT22;64927;48.214;16.378;2024-02-21T04:01:02;10.30;57.20
76168;DHT22;64927;48.214;16.378;2024-02-21T04:03:28;10.30;57.10
76168;DHT22;64927;48.214;16.378;2024-02-21T04:05:56;10.30;57.10
76168;DHT22;64927;48.214;16.378;2024-02-21T04:08:24;10.40;57.10
76168;DHT22;64927;48.214;16.378;2024-02-21T04:10:49;10.40;57.00
76168;DHT22;64927;48.214;16.378;2024-02-21T04:13:15;10.40;56.90
76168;DHT22;64927;48.214;16.378;2024-02-21T04:15:41;10.30;57.00
76168;DHT22;64927;48.214;16.378;2024-02-21T04:18:06;10.30;57.40
76168;DHT22;64927;48.214;16.378;2024-02-21T04:20:33;10.20;57.60
76168;DHT22;64927;48.214;16.378;2024-02-21T04:22:59;10.20;58.00
76168;DHT22;64927;48.214;16.378;2024-02-21T04:25:25;10.10;58.00
76168;DHT22;64927;48.214;16.378;2024-02-21T04:27:51;10.20;58.20
76168;DHT22;64927;48.214;16.378;2024-02-21T04:30:17;10.10;58.50
76168;DHT22;64927;48.214;16.378;2024-02-21T04:32:43;10.10;58.50
76168;DHT22;64927;48.214;16.378;2024-02-21T04:35:09;10.20;58.40
76168;DHT22;64927;48.214;16.378;2024-02-21T04:37:34;10.20;58.10
76168;DHT22;64927;48.214;16.378;2024-02-21T04:40:02;10.10;58.30
76168;DHT22;64927;48.214;16.378;2024-02-21T04:42:28;10.10;58.20
76168;DHT22;64927;48.214;16.378;2024-02-21T04:44:53;10.20;58.10
76168;DHT22;64927;48.214;16.378;2024-02-21T04:47:19;10.20;57.90
76168;DHT22;64927;48.214;16.378;2024-02-21T04:49:50;10.20;58.20
76168;DHT22;64927;48.214;16.378;2024-02-21T04:52:16;10.20;57.80
76168;DHT22;64927;48.214;16.378;2024-02-21T04:54:41;10.20;58.50
76168;DHT22;64927;48.214;16.378;2024-02-21T04:57:07;10.30;57.70
76168;DHT22;64927;48.214;16.378;2024-02-21T04:59:33;10.30;57.70
76168;DHT22;64927;48.214;16.378;2024-02-21T05:02:00;10.30;57.30
76168;DHT22;64927;48.214;16.378;2024-02-21T05:04:26;10.30;57.10
76168;DHT22;64927;48.214;16.378;2024-02-21T05:06:51;10.30;57.20
76168;DHT22;64927;48.214;16.378;2024-02-21T05:09:17;10.40;57.20
76168;DHT22;64927;48.214;16.378;2024-02-21T05:11:42;10.30;56.90
76168;DHT22;64927;48.214;16.378;2024-02-21T05:14:10;10.30;57.00
76168;DHT22;64927;48.214;16.378;2024-02-21T05:16:39;10.30;57.10
76168;DHT22;64927;48.214;16.378;2024-02-21T05:19:06;10.40;56.40
76168;DHT22;64927;48.214;16.378;2024-02-21T05:21:32;10.40;56.20
76168;DHT22;64927;48.214;16.378;2024-02-21T05:24:00;10.40;56.60
76168;DHT22;64927;48.214;16.378;2024-02-21T05:26:26;10.30;56.80
76168;DHT22;64927;48.214;16.378;2024-02-21T05:28:52;10.30;56.50
76168;DHT22;64927;48.214;16.378;2024-02-21T05:31:23;10.30;56.90
76168;DHT22;64927;48.214;16.378;2024-02-21T05:33:49;10.40;56.80
76168;DHT22;64927;48.214;16.378;2024-02-21T05:36:14;10.30;56.90
76168;DHT22;64927;48.214;16.378;2024-02-21T05:38:40;10.30;56.60
76168;DHT22;64927;48.214;16.378;2024-02-21T05:41:06;10.40;56.70
76168;DHT22;64927;48.214;16.378;2024-02-21T05:43:31;10.40;56.30
76168;DHT22;64927;48.214;16.378;2024-02-21T05:45:59;10.50;56.20
76168;DHT22;64927;48.214;16.378;2024-02-21T05:48:25;10.50;56.30
76168;DHT22;64927;48.214;16.378;2024-02-21T05:50:51;10.40;56.00
76168;DHT22;64927;48.214;16.378;2024-02-21T05:53:17;10.50;55.50
76168;DHT22;64927;48.214;16.378;2024-02-21T05:55:42;10.50;55.80
76168;DHT22;64927;48.214;16.378;2024-02-21T05:58:11;10.50;55.70
76168;DHT22;64927;48.214;16.378;2024-02-21T06:00:39;10.50;55.60
76168;DHT22;64927;48.214;16.378;2024-02-21T06:03:04;10.50;55.60
76168;DHT22;64927;48.214;16.378;2024-02-21T06:05:30;10.50;55.20
76168;DHT22;64927;48.214;16.378;2024-02-21T06:07:57;10.60;54.90
76168;DHT22;64927;48.214;16.378;2024-02-21T06:10:23;10.60;54.60
76168;DHT22;64927;48.214;16.378;2024-02-21T06:12:48;10.60;54.30
76168;DHT22;64927;48.214;16.378;2024-02-21T06:15:14;10.70;54.40
76168;DHT22;64927;48.214;16.378;2024-02-21T06:17:40;10.70;53.90
76168;DHT22;64927;48.214;16.378;2024-02-21T06:20:06;10.70;53.60
76168;DHT22;64927;48.214;16.378;2024-02-21T06:22:32;10.70;53.60
76168;DHT22;64927;48.214;16.378;2024-02-21T06:24:57;10.70;53.10
76168;DHT22;64927;48.214;16.378;2024-02-21T06:27:23;10.60;53.40
76168;DHT22;64927;48.214;16.378;2024-02-21T06:29:49;10.70;53.30
76168;DHT22;64927;48.214;16.378;2024-02-21T06:32:15;10.70;53.00
76168;DHT22;64927;48.214;16.378;2024-02-21T06:34:41;10.80;53.80
76168;DHT22;64927;48.214;16.378;2024-02-21T06:37:08;10.90;54.50
76168;DHT22;64927;48.214;16.378;2024-02-21T06:39:37;11.00;53.80
76168;DHT22;64927;48.214;16.378;2024-02-21T06:42:03;11.10;52.30
76168;DHT22;64927;48.214;16.378;2024-02-21T06:44:31;10.90;52.30
76168;DHT22;64927;48.214;16.378;2024-02-21T06:47:01;10.90;51.60
76168;DHT22;64927;48.214;16.378;2024-02-21T06:49:27;11.00;51.80
76168;DHT22;64927;48.214;16.378;2024-02-21T06:51:53;11.00;51.60
76168;DHT22;64927;48.214;16.378;2024-02-21T06:54:18;11.00;51.80
76168;DHT22;64927;48.214;16.378;2024-02-21T06:56:44;10.90;51.80
76168;DHT22;64927;48.214;16.378;2024-02-21T06:59:10;11.00;51.90
76168;DHT22;64927;48.214;16.378;2024-02-21T07:01:37;11.10;52.00
76168;DHT22;64927;48.214;16.378;2024-02-21T07:04:02;11.10;51.40
76168;DHT22;64927;48.214;16.378;2024-02-21T07:06:28;11.10;51.00
76168;DHT22;64927;48.214;16.378;2024-02-21T07:08:54;11.10;50.70
76168;DHT22;64927;48.214;16.378;2024-02-21T07:11:19;11.00;51.00
76168;DHT22;64927;48.214;16.378;2024-02-21T07:13:45;11.00;51.30
76168;DHT22;64927;48.214;16.378;2024-02-21T07:16:11;10.90;50.90
76168;DHT22;64927;48.214;16.378;2024-02-21T07:18:38;10.90;51.20
76168;DHT22;64927;48.214;16.378;2024-02-21T07:21:04;10.90;51.10
76168;DHT22;64927;48.214;16.378;2024-02-21T07:23:30;10.90;51.70
76168;DHT22;64927;48.214;16.378;2024-02-21T07:25:55;10.90;51.40
76168;DHT22;64927;48.214;16.378;2024-02-21T07:28:21;10.90;51.50
76168;DHT22;64927;48.214;16.378;2024-02-21T07:30:46;10.90;50.90
76168;DHT22;64927;48.214;16.378;2024-02-21T07:33:12;10.90;51.10
76168;DHT22;64927;48.214;16.378;2024-02-21T07:35:38;11.10;50.80
76168;DHT22;64927;48.214;16.378;2024-02-21T07:38:06;11.20;50.40
76168;DHT22;64927;48.214;16.378;2024-02-21T07:40:32;11.30;50.10
76168;DHT22;64927;48.214;16.378;2024-02-21T07:42:58;11.40;50.10
76168;DHT22;64927;48.214;16.378;2024-02-21T07:45:23;11.40;49.60
76168;DHT22;64927;48.214;16.378;2024-02-21T07:47:50;11.40;49.60
76168;DHT22;64927;48.214;16.378;2024-02-21T07:50:16;11.30;49.30
76168;DHT22;64927;48.214;16.378;2024-02-21T07:52:42;11.40;49.40
76168;DHT22;64927;48.214;16.378;2024-02-21T07:55:10;11.40;49.60
76168;DHT22;64927;48.214;16.378;2024-02-21T07:57:36;11.50;49.30
76168;DHT22;64927;48.214;16.378;2024-02-21T08:00:02;11.40;49.20
76168;DHT22;64927;48.214;16.378;2024-02-21T08:02:30;11.50;49.20
76168;DHT22;64927;48.214;16.378;2024-02-21T08:04:56;11.70;49.00
76168;DHT22;64927;48.214;16.378;2024-02-21T08:07:21;11.80;48.90
76168;DHT22;64927;48.214;16.378;2024-02-21T08:09:47;11.80;48.20
76168;DHT22;64927;48.214;16.378;2024-02-21T08:12:13;11.90;48.30
76168;DHT22;64927;48.214;16.378;2024-02-21T08:14:38;11.80;48.20
76168;DHT22;64927;48.214;16.378;2024-02-21T08:17:04;12.00;48.00
76168;DHT22;64927;48.214;16.378;2024-02-21T08:19:30;12.00;48.00
76168;DHT22;64927;48.214;16.378;2024-02-21T08:21:58;12.00;48.10
76168;DHT22;64927;48.214;16.378;2024-02-21T08:24:23;12.20;47.40
76168;DHT22;64927;48.214;16.378;2024-02-21T08:26:49;12.40;46.70
76168;DHT22;64927;48.214;16.378;2024-02-21T08:29:15;12.60;46.70
76168;DHT22;64927;48.214;16.378;2024-02-21T08:31:43;12.90;45.30
76168;DHT22;64927;48.214;16.378;2024-02-21T08:34:11;13.10;44.50
76168;DHT22;64927;48.214;16.378;2024-02-21T08:36:41;13.00;44.30
76168;DHT22;64927;48.214;16.378;2024-02-21T08:39:06;13.00;44.40
76168;DHT22;64927;48.214;16.378;2024-02-21T08:41:34;13.30;44.00
76168;DHT22;64927;48.214;16.378;2024-02-21T08:44:04;13.60;43.20
76168;DHT22;64927;48.214;16.378;2024-02-21T08:46:29;13.70;42.80
76168;DHT22;64927;48.214;16.378;2024-02-21T08:48:55;13.90;43.00
76168;DHT22;64927;48.214;16.378;2024-02-21T08:51:23;14.20;41.90
76168;DHT22;64927;48.214;16.378;2024-02-21T08:53:48;14.50;41.40
76168;DHT22;64927;48.214;16.378;2024-02-21T08:56:15;14.50;40.80
76168;DHT22;64927;48.214;16.378;2024-02-21T08:58:41;14.40;40.50
76168;DHT22;64927;48.214;16.378;2024-02-21T09:01:07;14.20;41.70
76168;DHT22;64927;48.214;16.378;2024-02-21T09:03:36;14.40;41.20
76168;DHT22;64927;48.214;16.378;2024-02-21T09:06:05;14.60;41.20
76168;DHT22;64927;48.214;16.378;2024-02-21T09:08:32;14.50;40.50
76168;DHT22;64927;48.214;16.378;2024-02-21T09:10:59;14.50;40.90
76168;DHT22;64927;48.214;16.378;2024-02-21T09:13:25;14.50;40.80
76168;DHT22;64927;48.214;16.378;2024-02-21T09:15:50;14.40;40.90
76168;DHT22;64927;48.214;16.378;2024-02-21T09:18:16;14.50;40.60
76168;DHT22;64927;48.214;16.378;2024-02-21T09:20:42;14.60;40.30
76168;DHT22;64927;48.214;16.378;2024-02-21T09:23:08;14.60;40.00
76168;DHT22;64927;48.214;16.378;2024-02-21T09:25:36;14.70;40.80
76168;DHT22;64927;48.214;16.378;2024-02-21T09:28:02;14.90;40.70
76168;DHT22;64927;48.214;16.378;2024-02-21T09:30:28;14.90;40.40
76168;DHT22;64927;48.214;16.378;2024-02-21T09:32:54;14.70;40.60
76168;DHT22;64927;48.214;16.378;2024-02-21T09:35:19;14.70;40.60
76168;DHT22;64927;48.214;16.378;2024-02-21T09:37:47;14.40;40.90
76168;DHT22;64927;48.214;16.378;2024-02-21T09:40:16;14.20;41.20
76168;DHT22;64927;48.214;16.378;2024-02-21T09:42:42;14.10;41.60
76168;DHT22;64927;48.214;16.378;2024-02-21T09:45:20;14.00;42.00
76168;DHT22;64927;48.214;16.378;2024-02-21T09:50:50;14.40;41.00
76168;DHT22;64927;48.214;16.378;2024-02-21T09:53:17;14.40;41.10
76168;DHT22;64927;48.214;16.378;2024-02-21T09:55:43;14.60;40.70
76168;DHT22;64927;48.214;16.378;2024-02-21T09:58:10;14.70;40.40
76168;DHT22;64927;48.214;16.378;2024-02-21T10:00:36;14.90;40.40
76168;DHT22;64927;48.214;16.378;2024-02-21T10:03:05;15.00;40.10
76168;DHT22;64927;48.214;16.378;2024-02-21T10:05:37;15.20;40.00
76168;DHT22;64927;48.214;16.378;2024-02-21T10:08:05;15.00;39.80
76168;DHT22;64927;48.214;16.378;2024-02-21T10:10:42;15.00;40.00
76168;DHT22;64927;48.214;16.378;2024-02-21T10:13:09;15.10;39.70
76168;DHT22;64927;48.214;16.378;2024-02-21T10:15:37;15.20;39.30
76168;DHT22;64927;48.214;16.378;2024-02-21T10:18:03;15.10;40.10
76168;DHT22;64927;48.214;16.378;2024-02-21T10:20:29;15.10;39.80
76168;DHT22;64927;48.214;16.378;2024-02-21T10:23:05;15.10;40.00
76168;DHT22;64927;48.214;16.378;2024-02-21T10:25:35;15.10;40.50
76168;DHT22;64927;48.214;16.378;2024-02-21T10:28:06;15.20;40.10
76168;DHT22;64927;48.214;16.378;2024-02-21T10:30:31;15.30;39.70
76168;DHT22;64927;48.214;16.378;2024-02-21T10:33:01;15.40;39.90
76168;DHT22;64927;48.214;16.378;2024-02-21T10:35:33;15.40;39.70
76168;DHT22;64927;48.214;16.378;2024-02-21T10:37:59;15.70;40.00
76168;DHT22;64927;48.214;16.378;2024-02-21T10:40:29;15.80;39.00
76168;DHT22;64927;48.214;16.378;2024-02-21T10:42:58;15.70;38.90
76168;DHT22;64927;48.214;16.378;2024-02-21T10:45:32;15.80;39.10
76168;DHT22;64927;48.214;16.378;2024-02-21T10:48:20;15.80;39.00
76168;DHT22;64927;48.214;16.378;2024-02-21T10:51:33;15.70;39.00
76168;DHT22;64927;48.214;16.378;2024-02-21T10:56:45;15.60;39.00
76168;DHT22;64927;48.214;16.378;2024-02-21T10:59:13;15.60;39.30
76168;DHT22;64927;48.214;16.378;2024-02-21T11:01:39;15.60;39.00
76168;DHT22;64927;48.214;16.378;2024-02-21T11:04:06;15.60;39.40
76168;DHT22;64927;48.214;16.378;2024-02-21T11:06:38;15.50;39.50
76168;DHT22;64927;48.214;16.378;2024-02-21T11:09:08;15.40;39.50
76168;DHT22;64927;48.214;16.378;2024-02-21T11:11:41;15.50;39.60
76168;DHT22;64927;48.214;16.378;2024-02-21T11:14:08;15.60;39.60
76168;DHT22;64927;48.214;16.378;2024-02-21T11:16:41;15.70;39.30
76168;DHT22;64927;48.214;16.378;2024-02-21T11:19:19;15.40;39.80
76168;DHT22;64927;48.214;16.378;2024-02-21T11:21:45;15.30;40.00
76168;DHT22;64927;48.214;16.378;2024-02-21T11:24:13;15.30;40.00
76168;DHT22;64927;48.214;16.378;2024-02-21T11:26:42;15.30;40.10
76168;DHT22;64927;48.214;16.378;2024-02-21T11:29:07;15.30;39.90
76168;DHT22;64927;48.214;16.378;2024-02-21T11:31:47;15.20;40.10
76168;DHT22;64927;48.214;16.378;2024-02-21T11:34:13;15.00;40.10
76168;DHT22;64927;48.214;16.378;2024-02-21T11:36:50;14.90;40.40
76168;DHT22;64927;48.214;16.378;2024-02-21T11:39:23;14.80;40.60
76168;DHT22;64927;48.214;16.378;2024-02-21T11:42:03;14.80;40.50
76168;DHT22;64927;48.214;16.378;2024-02-21T11:44:33;14.90;40.90
76168;DHT22;64927;48.214;16.378;2024-02-21T11:46:59;14.90;40.70
76168;DHT22;64927;48.214;16.378;2024-02-21T11:49:35;14.80;40.60
76168;DHT22;64927;48.214;16.378;2024-02-21T11:52:02;15.00;40.80
76168;DHT22;64927;48.214;16.378;2024-02-21T11:54:30;15.10;40.00
76168;DHT22;64927;48.214;16.378;2024-02-21T11:56:55;15.20;39.80
76168;DHT22;64927;48.214;16.378;2024-02-21T11:59:21;15.20;39.10
76168;DHT22;64927;48.214;16.378;2024-02-21T12:01:48;15.30;38.80
76168;DHT22;64927;48.214;16.378;2024-02-21T12:04:15;15.30;38.60
76168;DHT22;64927;48.214;16.378;2024-02-21T12:06:44;15.40;38.70
76168;DHT22;64927;48.214;16.378;2024-02-21T12:09:10;15.40;39.40
76168;DHT22;64927;48.214;16.378;2024-02-21T12:11:39;15.50;38.50
76168;DHT22;64927;48.214;16.378;2024-02-21T12:14:04;15.40;38.30
76168;DHT22;64927;48.214;16.378;2024-02-21T12:16:32;15.50;38.10
76168;DHT22;64927;48.214;16.378;2024-02-21T12:19:00;15.40;37.70
76168;DHT22;64927;48.214;16.378;2024-02-21T12:21:27;15.30;38.50
76168;DHT22;64927;48.214;16.378;2024-02-21T12:23:55;15.20;38.20
76168;DHT22;64927;48.214;16.378;2024-02-21T12:26:22;15.10;39.00
76168;DHT22;64927;48.214;16.378;2024-02-21T12:28:50;15.00;38.50
76168;DHT22;64927;48.214;16.378;2024-02-21T12:31:19;15.10;38.50
76168;DHT22;64927;48.214;16.378;2024-02-21T12:33:44;15.00;38.50
76168;DHT22;64927;48.214;16.378;2024-02-21T12:36:10;15.10;38.50
76168;DHT22;64927;48.214;16.378;2024-02-21T12:38:36;15.10;37.90
76168;DHT22;64927;48.214;16.378;2024-02-21T12:41:02;15.10;38.00
76168;DHT22;64927;48.214;16.378;2024-02-21T12:43:28;15.00;38.20
76168;DHT22;64927;48.214;16.378;2024-02-21T12:45:54;15.00;38.10
76168;DHT22;64927;48.214;16.378;2024-02-21T12:48:22;14.90;38.40
76168;DHT22;64927;48.214;16.378;2024-02-21T12:50:49;14.90;38.40
76168;DHT22;64927;48.214;16.378;2024-02-21T12:53:19;14.90;38.70
76168;DHT22;64927;48.214;16.378;2024-02-21T12:55:49;15.10;38.40
76168;DHT22;64927;48.214;16.378;2024-02-21T12:58:15;15.10;38.00
76168;DHT22;64927;48.214;16.378;2024-02-21T13:00:41;15.30;38.10
76168;DHT22;64927;48.214;16.378;2024-02-21T13:03:10;15.40;38.20
76168;DHT22;64927;48.214;16.378;2024-02-21T13:05:38;15.40;37.50
76168;DHT22;64927;48.214;16.378;2024-02-21T13:08:05;15.40;37.50
76168;DHT22;64927;48.214;16.378;2024-02-21T13:10:37;15.50;36.90
76168;DHT22;64927;48.214;16.378;2024-02-21T13:13:03;15.50;36.90
76168;DHT22;64927;48.214;16.378;2024-02-21T13:15:31;15.60;36.80
76168;DHT22;64927;48.214;16.378;2024-02-21T13:17:57;15.60;36.90
76168;DHT22;64927;48.214;16.378;2024-02-21T13:20:25;15.60;36.50
76168;DHT22;64927;48.214;16.378;2024-02-21T13:22:52;15.70;36.60
76168;DHT22;64927;48.214;16.378;2024-02-21T13:25:18;15.80;36.50
76168;DHT22;64927;48.214;16.378;2024-02-21T13:27:46;15.70;36.30
76168;DHT22;64927;48.214;16.378;2024-02-21T13:30:12;15.60;37.10
76168;DHT22;64927;48.214;16.378;2024-02-21T13:32:41;15.70;36.40
76168;DHT22;64927;48.214;16.378;2024-02-21T13:35:11;15.80;36.30
76168;DHT22;64927;48.214;16.378;2024-02-21T13:37:40;15.90;36.30
76168;DHT22;64927;48.214;16.378;2024-02-21T13:40:06;15.80;36.10
76168;DHT22;64927;48.214;16.378;2024-02-21T13:42:34;15.90;36.30
76168;DHT22;64927;48.214;16.378;2024-02-21T13:45:00;15.90;36.20
76168;DHT22;64927;48.214;16.378;2024-02-21T13:47:26;15.90;36.10
76168;DHT22;64927;48.214;16.378;2024-02-21T13:49:52;15.90;36.50
76168;DHT22;64927;48.214;16.378;2024-02-21T13:52:17;16.00;35.70
76168;DHT22;64927;48.214;16.378;2024-02-21T13:54:46;16.00;35.50
76168;DHT22;64927;48.214;16.378;2024-02-21T13:57:12;15.90;35.60
76168;DHT22;64927;48.214;16.378;2024-02-21T13:59:39;15.90;35.30
76168;DHT22;64927;48.214;16.378;2024-02-21T14:02:05;15.80;35.50
76168;DHT22;64927;48.214;16.378;2024-02-21T14:04:35;15.90;36.00
76168;DHT22;64927;48.214;16.378;2024-02-21T14:07:01;15.90;35.30
76168;DHT22;64927;48.214;16.378;2024-02-21T14:09:31;16.00;35.60
76168;DHT22;64927;48.214;16.378;2024-02-21T14:11:58;16.00;35.20
76168;DHT22;64927;48.214;16.378;2024-02-21T14:14:24;15.80;35.50
76168;DHT22;64927;48.214;16.378;2024-02-21T14:16:52;15.90;35.30
76168;DHT22;64927;48.214;16.378;2024-02-21T14:19:20;15.90;35.60
76168;DHT22;64927;48.214;16.378;2024-02-21T14:21:48;15.90;35.60
76168;DHT22;64927;48.214;16.378;2024-02-21T14:24:14;16.00;35.40
76168;DHT22;64927;48.214;16.378;2024-02-21T14:26:41;16.10;35.20
76168;DHT22;64927;48.214;16.378;2024-02-21T14:29:07;16.20;35.20
76168;DHT22;64927;48.214;16.378;2024-02-21T14:31:33;16.10;35.50
76168;DHT22;64927;48.214;16.378;2024-02-21T14:33:59;16.20;35.20
76168;DHT22;64927;48.214;16.378;2024-02-21T14:36:26;16.20;35.20
76168;DHT22;64927;48.214;16.378;2024-02-21T14:38:54;16.30;35.70
76168;DHT22;64927;48.214;16.378;2024-02-21T14:41:20;16.40;35.80
76168;DHT22;64927;48.214;16.378;2024-02-21T14:43:45;16.50;35.30
76168;DHT22;64927;48.214;16.378;2024-02-21T14:46:14;16.50;35.10
76168;DHT22;64927;48.214;16.378;2024-02-21T14:48:39;16.50;34.90
76168;DHT22;64927;48.214;16.378;2024-02-21T14:51:05;16.40;34.70
76168;DHT22;64927;48.214;16.378;2024-02-21T14:53:31;16.40;34.90
76168;DHT22;64927;48.214;16.378;2024-02-21T14:55:57;16.40;35.10
76168;DHT22;64927;48.214;16.378;2024-02-21T14:58:25;16.30;35.30
76168;DHT22;64927;48.214;16.378;2024-02-21T15:00:52;16.20;35.60
76168;DHT22;64927;48.214;16.378;2024-02-21T15:03:19;16.30;35.60
76168;DHT22;64927;48.214;16.378;2024-02-21T15:05:46;16.20;35.40
76168;DHT22;64927;48.214;16.378;2024-02-21T15:08:12;16.20;35.50
76168;DHT22;64927;48.214;16.378;2024-02-21T15:10:38;16.10;35.10
76168;DHT22;64927;48.214;16.378;2024-02-21T15:13:04;16.10;35.30
76168;DHT22;64927;48.214;16.378;2024-02-21T15:15:32;16.00;35.00
76168;DHT22;64927;48.214;16.378;2024-02-21T15:17:57;15.90;35.50
76168;DHT22;64927;48.214;16.378;2024-02-21T15:20:23;15.90;35.50
76168;DHT22;64927;48.214;16.378;2024-02-21T15:22:49;15.90;35.80